Time;durP1;ratioP1;P1;durP2;ratioP2;P2;SDS_P1;SDS_P2;PMS_P1;PMS_P2;Temp;Humidity;BMP_temperature;BMP_pressure;BME280_temperature;BME280_humidity;BME280_pressure;Samples;Min_cycle;Max_cycle;Signal;HPM_P1;HPM_P2
2021/04/12 00:01:14;;;;;;;7.03;4.18;;;5.50;99.90;;;;;;5067597;28;20037;-66
2021/04/12 00:04:34;;;;;;;7.35;4.32;;;5.50;99.90;;;;;;5067320;28;20025;-65
2021/04/12 00:07:07;;;;;;;7.18;4.40;;;5.50;99.90;;;;;;5052945;28;20041;-65
2021/04/12 00:10:19;;;;;;;7.32;4.75;;;5.40;99.90;;;;;;5053360;28;20028;-65
2021/04/12 00:13:16;;;;;;;6.07;4.18;;;5.40;99.90;;;;;;5066138;28;20033;-65
2021/04/12 00:16:09;;;;;;;5.93;3.80;;;5.40;99.90;;;;;;5066015;28;20115;-65
2021/04/12 00:18:47;;;;;;;7.60;4.63;;;5.40;99.90;;;;;;5067417;28;20410;-65
2021/04/12 00:21:37;;;;;;;8.18;4.25;;;5.50;99.90;;;;;;5053371;28;20029;-65
2021/04/12 00:24:19;;;;;;;7.50;4.25;;;5.50;99.90;;;;;;5067369;28;20053;-66
2021/04/12 00:27:11;;;;;;;7.13;4.20;;;5.50;99.90;;;;;;5053038;28;20039;-64
2021/04/12 00:29:59;;;;;;;7.18;4.30;;;5.40;99.90;;;;;;5052989;28;20059;-65
2021/04/12 00:32:28;;;;;;;7.25;4.15;;;5.40;99.90;;;;;;5053162;28;20478;-66
2021/04/12 00:35:02;;;;;;;6.80;4.30;;;5.50;99.90;;;;;;5053031;28;20393;-66
2021/04/12 00:37:45;;;;;;;8.13;4.20;;;5.50;99.90;;;;;;5068271;28;20087;-66
2021/04/12 00:40:26;;;;;;;7.60;4.50;;;5.50;99.90;;;;;;5053077;28;20033;-66
2021/04/12 00:43:19;;;;;;;7.72;4.35;;;5.60;99.90;;;;;;5066870;28;20057;-65
2021/04/12 00:45:48;;;;;;;6.30;3.80;;;5.50;99.90;;;;;;5065971;28;20029;-65
2021/04/12 00:48:43;;;;;;;6.93;4.10;;;5.60;99.90;;;;;;5052762;28;20029;-66
2021/04/12 00:52:19;;;;;;;6.43;4.13;;;5.60;99.90;;;;;;5052835;28;20040;-66
2021/04/12 00:55:17;;;;;;;8.68;3.78;;;5.60;99.90;;;;;;5023480;28;20041;-66
2021/04/12 00:58:10;;;;;;;5.45;3.80;;;5.50;99.90;;;;;;5052526;28;20098;-66
2021/04/12 01:00:54;;;;;;;7.55;3.80;;;5.50;99.90;;;;;;5052565;28;20037;-66
2021/04/12 01:04:07;;;;;;;5.70;3.70;;;5.40;99.90;;;;;;5066494;28;20386;-65
2021/04/12 01:06:57;;;;;;;7.43;4.18;;;5.40;99.90;;;;;;5052473;28;20033;-65
2021/04/12 01:10:13;;;;;;;7.60;4.32;;;5.40;99.90;;;;;;5052477;28;20076;-65
2021/04/12 01:13:26;;;;;;;8.10;3.63;;;5.40;99.90;;;;;;5052331;28;20033;-65
2021/04/12 01:16:31;;;;;;;5.93;2.92;;;5.40;99.90;;;;;;5036319;28;20067;-65
2021/04/12 01:19:33;;;;;;;7.00;3.95;;;5.40;99.90;;;;;;5064998;28;20055;-65
2021/04/12 01:22:39;;;;;;;7.43;4.00;;;5.30;99.90;;;;;;5030242;28;20125;-64
2021/04/12 01:25:42;;;;;;;8.35;4.32;;;5.30;99.90;;;;;;5052375;28;20037;-65
2021/04/12 01:28:39;;;;;;;7.95;3.92;;;5.30;99.90;;;;;;5050837;28;20047;-65
2021/04/12 01:31:04;;;;;;;9.70;4.68;;;5.30;99.90;;;;;;5052433;28;20037;-65
2021/04/12 01:33:53;;;;;;;7.88;5.35;;;5.30;99.90;;;;;;5052201;28;20390;-64
2021/04/12 01:37:17;;;;;;;10.10;5.30;;;5.30;99.90;;;;;;5067079;28;20033;-64
2021/04/12 01:40:12;;;;;;;9.90;5.15;;;5.20;99.90;;;;;;5052043;28;20041;-65
2021/04/12 01:42:54;;;;;;;10.60;5.40;;;5.20;99.90;;;;;;5051934;28;20393;-65
2021/04/12 01:45:33;;;;;;;10.35;6.13;;;5.20;99.90;;;;;;5052169;28;20494;-64
2021/04/12 01:48:44;;;;;;;10.02;6.28;;;5.20;99.90;;;;;;5066751;28;20478;-65
2021/04/12 01:51:21;;;;;;;12.73;6.57;;;5.20;99.90;;;;;;5052204;28;20485;-64
2021/04/12 01:54:21;;;;;;;13.25;6.60;;;5.20;99.90;;;;;;5051948;28;20041;-65
2021/04/12 01:57:11;;;;;;;14.23;7.55;;;5.20;99.90;;;;;;5051997;28;20071;-65
2021/04/12 02:00:23;;;;;;;14.35;7.15;;;5.20;99.90;;;;;;5051777;28;20045;-66
2021/04/12 02:03:38;;;;;;;13.30;7.20;;;5.20;99.90;;;;;;5051970;28;20051;-65
2021/04/12 02:06:15;;;;;;;11.70;7.25;;;5.20;99.90;;;;;;5051975;28;20473;-65
2021/04/12 02:08:54;;;;;;;12.98;8.10;;;5.20;99.90;;;;;;5051582;28;20045;-65
2021/04/12 02:11:35;;;;;;;10.98;7.00;;;5.30;99.90;;;;;;5066989;28;20037;-64
2021/04/12 02:14:42;;;;;;;12.80;7.82;;;5.30;99.90;;;;;;5051871;28;20132;-65
2021/04/12 02:17:35;;;;;;;14.73;7.65;;;5.20;99.90;;;;;;5042530;28;20043;-65
2021/04/12 02:20:41;;;;;;;9.02;5.53;;;5.20;99.90;;;;;;5066548;28;20103;-65
2021/04/12 02:24:09;;;;;;;10.52;5.07;;;5.20;99.90;;;;;;5065932;28;20033;-65
2021/04/12 02:26:41;;;;;;;7.55;4.40;;;5.20;99.90;;;;;;5012242;28;20060;-65
2021/04/12 02:29:39;;;;;;;6.50;4.05;;;5.20;99.90;;;;;;4996727;28;20077;-65
2021/04/12 02:32:17;;;;;;;6.53;3.50;;;5.20;99.90;;;;;;5045554;28;20033;-65
2021/04/12 02:35:00;;;;;;;5.65;3.33;;;5.10;99.90;;;;;;5069308;28;20445;-65
2021/04/12 02:37:29;;;;;;;5.63;3.30;;;5.10;99.90;;;;;;5069093;28;20029;-65
2021/04/12 02:40:16;;;;;;;7.35;3.85;;;5.10;99.90;;;;;;5055165;28;20029;-65
2021/04/12 02:43:29;;;;;;;9.20;3.70;;;5.00;99.90;;;;;;5055143;28;20047;-65
2021/04/12 02:46:24;;;;;;;8.00;3.20;;;5.00;99.90;;;;;;5031586;28;20045;-65
2021/04/12 02:49:06;;;;;;;5.20;3.10;;;4.90;99.90;;;;;;5054589;28;20032;-65
2021/04/12 02:52:11;;;;;;;9.15;3.47;;;4.90;99.90;;;;;;5069528;28;20116;-66
2021/04/12 02:55:14;;;;;;;9.68;4.30;;;4.90;99.90;;;;;;5068033;28;20041;-65
2021/04/12 02:58:12;;;;;;;7.35;3.75;;;4.80;99.90;;;;;;5054698;28;20029;-66
2021/04/12 03:00:44;;;;;;;8.10;3.92;;;4.80;99.90;;;;;;5066503;28;20060;-66
2021/04/12 03:04:16;;;;;;;7.32;3.15;;;4.80;99.90;;;;;;5054807;28;20033;-66
2021/04/12 03:07:12;;;;;;;6.55;3.60;;;4.80;99.90;;;;;;5021611;28;20048;-66
2021/04/12 03:10:00;;;;;;;9.07;4.00;;;4.80;99.90;;;;;;5054612;28;20128;-66
2021/04/12 03:12:44;;;;;;;7.38;4.40;;;4.80;99.90;;;;;;5054702;28;20129;-65
2021/04/12 03:15:12;;;;;;;6.43;4.00;;;4.80;99.90;;;;;;5054605;28;20088;-66
2021/04/12 03:18:29;;;;;;;6.60;3.97;;;4.80;99.90;;;;;;5054062;28;20076;-65
2021/04/12 03:21:36;;;;;;;6.90;4.07;;;4.90;99.90;;;;;;5009375;28;20045;-65
2021/04/12 03:24:25;;;;;;;8.85;3.97;;;4.90;99.90;;;;;;5068612;28;20025;-64
2021/04/12 03:27:47;;;;;;;6.40;4.15;;;4.90;99.90;;;;;;5054220;28;20116;-65
2021/04/12 03:30:43;;;;;;;;;;;4.90;99.90;;;;;;5054808;28;20029;-65
2021/04/12 03:33:59;;;;;;;6.70;3.58;;;4.90;99.90;;;;;;5054176;28;19908;-65
2021/04/12 03:37:10;;;;;;;7.70;4.40;;;5.00;99.90;;;;;;5042183;28;20128;-64
2021/04/12 03:39:52;;;;;;;7.43;3.70;;;4.90;99.90;;;;;;5068855;28;20044;-64
2021/04/12 03:42:49;;;;;;;;;;;4.90;99.90;;;;;;5054100;28;20025;-64
2021/04/12 03:45:41;;;;;;;10.50;5.78;;;5.00;99.90;;;;;;5034027;28;19912;-64
2021/04/12 03:48:39;;;;;;;17.98;7.75;;;5.10;99.90;;;;;;5053596;28;20040;-64
2021/04/12 03:51:36;;;;;;;13.02;7.80;;;5.20;99.90;;;;;;5027372;28;20121;-65
2021/04/12 03:54:23;;;;;;;20.15;10.48;;;5.10;99.90;;;;;;5032523;28;20044;-64
2021/04/12 03:57:26;;;;;;;16.77;10.10;;;5.10;99.90;;;;;;5041035;28;20478;-65
2021/04/12 04:00:29;;;;;;;22.80;10.93;;;5.10;99.90;;;;;;5032262;28;20033;-66
2021/04/12 04:03:42;;;;;;;19.10;11.07;;;5.10;99.90;;;;;;5032206;28;20065;-65
2021/04/12 04:06:15;;;;;;;22.90;10.68;;;5.20;99.90;;;;;;5033147;28;20021;-66
2021/04/12 04:09:06;;;;;;;21.52;11.82;;;5.20;99.90;;;;;;5033159;28;20489;-66
2021/04/12 04:12:14;;;;;;;20.80;12.45;;;5.20;99.90;;;;;;5038184;28;20054;-66
2021/04/12 04:15:09;;;;;;;24.45;11.50;;;5.20;99.90;;;;;;5032362;28;20046;-66
2021/04/12 04:18:23;;;;;;;25.45;12.30;;;5.20;99.90;;;;;;5032739;28;20053;-67
2021/04/12 04:21:32;;;;;;;23.65;11.90;;;5.10;99.90;;;;;;5044712;28;20037;-67
2021/04/12 04:24:19;;;;;;;27.85;13.25;;;5.10;99.90;;;;;;5053151;28;20029;-67
2021/04/12 04:27:30;;;;;;;27.38;12.27;;;5.20;99.90;;;;;;5052963;28;20029;-66
2021/04/12 04:30:13;;;;;;;21.67;11.38;;;5.20;99.90;;;;;;5065568;28;20033;-66
2021/04/12 04:33:26;;;;;;;23.23;12.57;;;5.10;99.90;;;;;;5053094;28;20124;-67
2021/04/12 04:36:35;;;;;;;22.95;11.25;;;5.10;99.90;;;;;;5052811;28;20084;-66
2021/04/12 04:39:36;;;;;;;21.73;11.35;;;5.10;99.90;;;;;;5052838;28;20040;-67
2021/04/12 04:42:09;;;;;;;19.75;10.90;;;5.10;99.90;;;;;;5052634;28;20033;-67
2021/04/12 04:45:32;;;;;;;25.30;10.38;;;5.10;99.90;;;;;;5052982;28;20474;-67
2021/04/12 04:48:06;;;;;;;24.85;11.32;;;5.00;99.90;;;;;;5037289;28;20040;-66
2021/04/12 04:51:11;;;;;;;22.27;8.80;;;5.00;99.90;;;;;;5042994;28;20483;-66
2021/04/12 04:53:57;;;;;;;17.23;8.80;;;5.00;99.90;;;;;;5031526;28;20033;-66
2021/04/12 04:56:38;;;;;;;17.45;7.68;;;4.90;99.90;;;;;;5032711;28;20087;-67
2021/04/12 04:59:29;;;;;;;15.73;8.60;;;4.90;99.90;;;;;;5031559;28;20037;-67
2021/04/12 05:02:27;;;;;;;19.00;7.78;;;4.80;99.90;;;;;;5032006;28;20091;-68
2021/04/12 05:05:25;;;;;;;16.50;7.60;;;4.90;99.90;;;;;;5024345;28;20438;-67
2021/04/12 05:08:22;;;;;;;16.70;7.30;;;4.80;99.90;;;;;;5041443;28;20036;-68
2021/04/12 05:11:53;;;;;;;12.60;6.60;;;4.80;99.90;;;;;;5030855;28;20034;-68
2021/04/12 05:14:36;;;;;;;15.13;7.10;;;4.80;99.90;;;;;;5019868;28;20045;-68
2021/04/12 05:17:33;;;;;;;14.98;7.85;;;4.80;99.90;;;;;;5032399;28;20044;-68
2021/04/12 05:20:42;;;;;;;14.70;6.47;;;4.80;99.90;;;;;;5036833;28;20040;-68
2021/04/12 05:23:34;;;;;;;13.90;5.93;;;4.80;99.90;;;;;;5052207;28;20068;-67
2021/04/12 05:26:18;;;;;;;15.73;7.50;;;4.80;99.90;;;;;;5052252;28;20067;-67
2021/04/12 05:29:24;;;;;;;11.02;6.10;;;4.80;99.90;;;;;;5052280;28;20033;-67
2021/04/12 05:32:21;;;;;;;9.88;5.32;;;4.80;99.90;;;;;;5040307;28;20430;-68
2021/04/12 05:35:47;;;;;;;9.73;6.30;;;4.80;99.90;;;;;;5031171;28;20034;-68
2021/04/12 05:38:30;;;;;;;12.00;5.45;;;4.80;99.90;;;;;;5009080;28;20045;-67
2021/04/12 05:41:33;;;;;;;13.35;6.03;;;4.80;99.90;;;;;;5032040;28;20538;-68
2021/04/12 05:44:25;;;;;;;15.13;6.22;;;4.80;99.90;;;;;;5009032;28;20045;-67
2021/04/12 05:47:17;;;;;;;9.32;5.88;;;4.80;99.90;;;;;;5020118;28;20038;-68
2021/04/12 05:50:12;;;;;;;10.35;5.40;;;4.80;99.90;;;;;;5034309;28;20367;-68
2021/04/12 05:53:02;;;;;;;13.05;5.72;;;4.90;99.90;;;;;;5051971;28;20496;-67
2021/04/12 05:56:02;;;;;;;13.52;5.63;;;4.80;99.90;;;;;;5050454;28;20036;-68
2021/04/12 05:59:03;;;;;;;14.00;5.90;;;4.90;99.90;;;;;;5051881;28;20033;-68
2021/04/12 06:02:10;;;;;;;9.55;5.43;;;5.00;99.90;;;;;;5054672;28;20025;-67
2021/04/12 06:04:58;;;;;;;11.55;5.43;;;5.00;99.90;;;;;;5047512;28;20132;-68
2021/04/12 06:07:35;;;;;;;9.50;5.13;;;5.10;99.90;;;;;;5015946;28;20033;-67
2021/04/12 06:10:28;;;;;;;10.05;5.68;;;5.10;99.90;;;;;;5028538;28;20040;-68
2021/04/12 06:13:47;;;;;;;11.27;5.40;;;5.00;99.90;;;;;;5033833;28;20036;-62
2021/04/12 06:16:53;;;;;;;13.60;5.65;;;5.00;99.90;;;;;;5029099;28;20383;-67
2021/04/12 06:19:47;;;;;;;16.35;6.43;;;5.00;99.90;;;;;;5034788;28;20041;-67
2021/04/12 06:22:52;;;;;;;13.52;6.57;;;5.00;99.90;;;;;;5034885;28;20037;-67
2021/04/12 06:25:49;;;;;;;11.25;5.93;;;5.00;99.90;;;;;;5035376;28;20343;-67
2021/04/12 06:28:39;;;;;;;14.05;6.25;;;5.00;99.90;;;;;;5033982;28;20025;-67
2021/04/12 06:31:48;;;;;;;10.80;5.93;;;5.10;99.90;;;;;;5033637;28;20477;-67
2021/04/12 06:34:44;;;;;;;13.60;5.40;;;5.10;99.90;;;;;;5034716;28;20363;-67
2021/04/12 06:37:39;;;;;;;9.13;4.95;;;5.20;99.90;;;;;;5034999;28;20129;-67
2021/04/12 06:41:08;;;;;;;7.95;4.60;;;5.20;99.90;;;;;;5032456;28;20590;-67
2021/04/12 06:44:20;;;;;;;8.93;5.40;;;5.10;99.90;;;;;;5034950;28;20029;-67
2021/04/12 06:47:01;;;;;;;8.48;4.95;;;5.20;99.90;;;;;;5034715;28;20424;-67
2021/04/12 06:49:57;;;;;;;7.60;4.72;;;5.20;99.90;;;;;;5035089;28;20056;-68
2021/04/12 06:52:33;;;;;;;10.13;4.82;;;5.20;99.90;;;;;;5054895;28;20079;-67
2021/04/12 06:55:20;;;;;;;9.75;4.70;;;5.20;99.90;;;;;;5070145;28;20033;-66
2021/04/12 06:58:16;;;;;;;13.15;5.53;;;5.30;99.90;;;;;;5054839;28;20090;-67
2021/04/12 07:01:36;;;;;;;9.30;5.10;;;5.30;99.90;;;;;;5037565;28;20033;-65
2021/04/12 07:04:50;;;;;;;10.60;5.03;;;5.40;99.90;;;;;;4992182;28;20033;-66
2021/04/12 07:07:44;;;;;;;9.52;5.15;;;5.50;99.90;;;;;;5028679;28;20034;-65
2021/04/12 07:11:05;;;;;;;15.63;5.57;;;5.60;99.90;;;;;;5027557;28;20030;-65
2021/04/12 07:13:59;;;;;;;11.93;5.30;;;5.70;99.90;;;;;;5034588;28;20030;-65
2021/04/12 07:17:06;;;;;;;10.27;5.43;;;5.70;99.90;;;;;;5014915;28;20036;-65
2021/04/12 07:20:15;;;;;;;10.98;5.43;;;5.70;99.90;;;;;;5018819;28;20049;-65
2021/04/12 07:23:15;;;;;;;16.60;6.00;;;5.80;99.90;;;;;;5016760;28;20121;-65
2021/04/12 07:26:24;;;;;;;9.60;5.45;;;5.80;99.90;;;;;;5054147;28;20466;-66
2021/04/12 07:29:02;;;;;;;12.57;6.15;;;5.90;99.90;;;;;;5053778;28;20477;-65
2021/04/12 07:32:09;;;;;;;9.90;5.50;;;5.90;99.90;;;;;;5054055;28;20083;-66
2021/04/12 07:35:12;;;;;;;8.45;4.78;;;5.90;99.90;;;;;;5054067;28;20489;-65
2021/04/12 07:38:20;;;;;;;12.07;5.28;;;5.90;99.90;;;;;;5053965;28;20028;-65
2021/04/12 07:41:59;;;;;;;10.00;4.55;;;5.80;99.90;;;;;;5053830;28;20037;-65
2021/04/12 07:44:59;;;;;;;9.25;3.80;;;6.00;99.90;;;;;;5053870;28;20063;-65
2021/04/12 07:47:55;;;;;;;10.45;4.68;;;6.10;99.90;;;;;;5053951;28;20033;-65
2021/04/12 07:51:01;;;;;;;7.25;3.70;;;6.00;99.90;;;;;;5028693;28;20044;-65
2021/04/12 07:53:51;;;;;;;10.00;4.35;;;6.20;99.90;;;;;;5052979;28;20036;-66
2021/04/12 07:57:08;;;;;;;11.10;3.35;;;6.30;99.90;;;;;;5052017;28;20395;-66
2021/04/12 08:00:23;;;;;;;7.43;3.47;;;6.20;99.90;;;;;;5035693;28;20091;-66
2021/04/12 08:03:45;;;;;;;6.00;3.03;;;6.20;99.90;;;;;;5053532;28;20049;-65
2021/04/12 08:06:58;;;;;;;7.38;3.72;;;6.40;99.90;;;;;;5053166;28;20074;-65
2021/04/12 08:10:01;;;;;;;7.97;4.05;;;6.50;99.90;;;;;;5053273;28;20140;-65
2021/04/12 08:12:53;;;;;;;10.27;4.05;;;6.80;99.90;;;;;;5053415;28;20037;-65
2021/04/12 08:15:51;;;;;;;8.70;2.92;;;7.00;99.90;;;;;;5053244;28;20039;-64
2021/04/12 08:18:32;;;;;;;8.40;3.40;;;7.00;99.90;;;;;;5052815;28;20088;-65
2021/04/12 08:21:32;;;;;;;6.25;3.03;;;6.80;99.90;;;;;;5040077;28;20371;-65
2021/04/12 08:24:42;;;;;;;6.65;2.65;;;6.90;99.90;;;;;;5032603;28;20084;-66
2021/04/12 08:27:51;;;;;;;7.53;3.33;;;6.80;99.90;;;;;;5032033;28;20044;-65
2021/04/12 08:30:44;;;;;;;7.78;3.20;;;7.00;99.90;;;;;;5032868;28;20034;-66
2021/04/12 08:33:59;;;;;;;6.03;3.10;;;7.20;99.90;;;;;;5032634;28;20040;-66
2021/04/12 08:37:05;;;;;;;5.53;2.60;;;7.10;99.90;;;;;;5032520;28;20564;-66
2021/04/12 08:40:04;;;;;;;5.07;2.20;;;7.10;99.90;;;;;;5032913;28;20076;-66
2021/04/12 08:43:03;;;;;;;11.00;3.55;;;7.30;99.90;;;;;;5033020;28;20116;-66
2021/04/12 08:45:47;;;;;;;6.82;2.92;;;7.20;99.90;;;;;;5032760;28;20103;-65
2021/04/12 08:48:35;;;;;;;8.48;3.17;;;7.20;99.90;;;;;;5032544;28;20054;-66
2021/04/12 08:51:25;;;;;;;9.38;2.97;;;7.40;99.90;;;;;;5039283;28;20038;-65
2021/04/12 08:54:16;;;;;;;6.00;2.63;;;7.30;99.90;;;;;;5032960;28;20057;-65
2021/04/12 08:57:13;;;;;;;5.85;2.50;;;7.30;99.90;;;;;;5048410;28;20043;-65
2021/04/12 08:59:57;;;;;;;7.65;2.38;;;7.50;99.90;;;;;;5032673;28;20033;-66
2021/04/12 09:02:52;;;;;;;5.72;2.45;;;7.70;99.80;;;;;;5032593;28;20029;-66
2021/04/12 09:05:58;;;;;;;6.53;2.88;;;7.70;98.90;;;;;;5021678;28;20044;-66
2021/04/12 09:08:24;;;;;;;5.45;3.15;;;8.10;99.00;;;;;;5032414;28;20135;-66
2021/04/12 09:11:36;;;;;;;8.82;4.03;;;8.20;98.20;;;;;;5032379;28;20104;-66
2021/04/12 09:14:38;;;;;;;5.43;3.15;;;8.20;99.30;;;;;;5032188;28;20438;-66
2021/04/12 09:17:23;;;;;;;4.68;2.63;;;8.00;98.90;;;;;;5032393;28;20041;-66
2021/04/12 09:20:12;;;;;;;3.25;1.98;;;7.70;98.80;;;;;;5035289;28;20557;-67
2021/04/12 09:23:20;;;;;;;7.93;2.75;;;7.60;97.50;;;;;;5052282;28;20044;-66
2021/04/12 09:26:13;;;;;;;8.85;3.25;;;7.50;97.90;;;;;;5052442;28;20127;-66
2021/04/12 09:29:15;;;;;;;7.78;3.70;;;7.80;98.60;;;;;;5052276;28;20138;-66
2021/04/12 09:32:18;;;;;;;;;;;8.10;99.90;;;;;;5052707;28;20069;-65
2021/04/12 09:34:55;;;;;;;11.55;3.97;;;8.50;99.90;;;;;;5054058;28;19920;-65
2021/04/12 09:37:33;;;;;;;6.07;4.15;;;8.60;98.30;;;;;;5046244;28;20037;-65
2021/04/12 09:40:42;;;;;;;5.90;3.08;;;8.80;98.50;;;;;;5030486;28;20068;-65
2021/04/12 09:43:26;;;;;;;6.60;3.65;;;8.60;96.50;;;;;;5035018;28;20040;-65
2021/04/12 09:46:17;;;;;;;9.80;4.28;;;8.50;97.70;;;;;;5034328;28;20382;-66
2021/04/12 09:49:04;;;;;;;7.32;3.83;;;8.40;98.40;;;;;;5033359;28;20167;-66
2021/04/12 09:51:39;;;;;;;6.93;3.95;;;8.30;99.20;;;;;;5033907;28;20505;-65
2021/04/12 09:54:56;;;;;;;8.52;3.83;;;8.40;98.00;;;;;;5033648;28;20033;-66
2021/04/12 09:58:14;;;;;;;8.43;3.20;;;8.10;98.40;;;;;;5034697;28;20482;-65
2021/04/12 10:01:08;;;;;;;10.43;3.22;;;8.20;98.20;;;;;;5031124;28;20642;-65
2021/04/12 10:04:10;;;;;;;7.28;3.03;;;8.30;97.30;;;;;;5047039;28;20462;-66
2021/04/12 10:07:15;;;;;;;4.43;2.22;;;8.30;96.30;;;;;;5033329;28;20064;-66
2021/04/12 10:10:09;;;;;;;3.38;2.00;;;8.50;95.00;;;;;;5035450;28;20037;-66
2021/04/12 10:13:13;;;;;;;5.63;1.95;;;8.80;92.40;;;;;;5034620;28;20034;-67
2021/04/12 10:15:58;;;;;;;6.70;2.70;;;9.10;92.10;;;;;;5035674;28;20108;-65
2021/04/12 10:18:50;;;;;;;6.32;2.10;;;9.60;91.60;;;;;;5035070;28;20152;-65
2021/04/12 10:21:24;;;;;;;5.53;2.70;;;9.70;88.90;;;;;;5051342;28;20035;-67
2021/04/12 10:24:12;;;;;;;7.07;2.70;;;9.70;89.80;;;;;;5054270;28;20033;-67
2021/04/12 10:27:07;;;;;;;5.57;3.00;;;10.00;87.20;;;;;;5055403;28;20039;-66
2021/04/12 10:30:37;;;;;;;6.60;3.35;;;9.70;88.80;;;;;;5062719;28;20026;-66
2021/04/12 10:33:08;;;;;;;5.38;3.00;;;9.90;90.60;;;;;;5021687;28;20049;-65
2021/04/12 10:35:40;;;;;;;;;;;9.70;88.80;;;;;;5033008;28;20082;-66
2021/04/12 10:38:35;;;;;;;10.95;3.10;;;9.60;90.80;;;;;;5033968;28;20410;-65
2021/04/12 10:41:28;;;;;;;4.32;2.13;;;9.70;90.00;;;;;;5034617;28;20045;-64
2021/04/12 10:44:12;;;;;;;4.90;1.88;;;9.90;85.40;;;;;;5026795;28;20534;-66
2021/04/12 10:47:06;;;;;;;5.20;1.70;;;10.30;74.10;;;;;;5033170;28;20045;-65
2021/04/12 10:50:18;;;;;;;4.45;2.00;;;10.50;76.60;;;;;;5035647;28;20034;-66
2021/04/12 10:53:06;;;;;;;3.45;1.92;;;10.90;74.50;;;;;;5044371;28;20209;-66
2021/04/12 10:55:46;;;;;;;9.82;2.25;;;11.00;72.60;;;;;;5034912;28;20037;-66
2021/04/12 10:58:44;;;;;;;8.27;2.80;;;10.70;74.00;;;;;;5028471;28;20099;-64
2021/04/12 11:01:57;;;;;;;5.72;2.90;;;10.00;76.80;;;;;;5033258;28;20033;-68
2021/04/12 11:05:02;;;;;;;5.40;2.20;;;10.50;78.00;;;;;;5034707;28;20386;-65
2021/04/12 11:07:53;;;;;;;8.52;1.90;;;10.60;79.90;;;;;;5034255;28;20945;-66
2021/04/12 11:11:08;;;;;;;3.97;1.40;;;10.40;75.50;;;;;;5034429;28;20482;-66
2021/04/12 11:13:58;;;;;;;3.33;1.63;;;10.20;74.40;;;;;;5033405;28;20052;-68
2021/04/12 11:17:09;;;;;;;4.37;2.50;;;10.00;76.30;;;;;;5034273;28;20033;-66
2021/04/12 11:20:08;;;;;;;2.65;1.52;;;9.50;77.40;;;;;;5015003;28;20053;-66
2021/04/12 11:22:58;;;;;;;4.35;2.20;;;9.30;76.80;;;;;;5031602;28;20465;-66
2021/04/12 11:26:05;;;;;;;7.65;1.60;;;9.10;78.70;;;;;;5016086;28;20034;-66
2021/04/12 11:29:19;;;;;;;3.45;1.80;;;9.20;78.80;;;;;;5013377;28;20462;-67
2021/04/12 11:32:30;;;;;;;5.05;2.10;;;9.10;81.50;;;;;;5013489;28;20117;-66
2021/04/12 11:35:04;;;;;;;3.65;1.75;;;9.30;76.60;;;;;;5013610;28;20038;-66
2021/04/12 11:38:15;;;;;;;6.40;2.08;;;9.30;78.50;;;;;;5014205;28;20042;-66
2021/04/12 11:40:44;;;;;;;;;;;9.60;79.60;;;;;;5014388;28;20133;-67
2021/04/12 11:43:15;;;;;;;5.72;1.73;;;9.50;76.80;;;;;;5011731;28;19913;-66
2021/04/12 11:45:52;;;;;;;;;;;9.40;79.00;;;;;;5009883;28;20175;-66
2021/04/12 11:48:47;;;;;;;8.13;1.60;;;9.50;78.00;;;;;;5028402;28;19913;-66
2021/04/12 11:51:46;;;;;;;7.47;1.70;;;9.60;76.70;;;;;;5013076;28;20514;-66
2021/04/12 11:54:13;;;;;;;5.22;2.33;;;9.50;78.20;;;;;;5014140;28;20030;-66
2021/04/12 11:57:02;;;;;;;5.70;1.75;;;9.50;79.80;;;;;;5012930;28;20030;-65
2021/04/12 11:59:45;;;;;;;3.80;1.42;;;9.70;79.80;;;;;;5013096;28;20133;-66
2021/04/12 12:02:27;;;;;;;1.95;1.00;;;9.80;80.30;;;;;;5014061;28;20598;-66
2021/04/12 12:04:58;;;;;;;2.42;1.23;;;9.90;78.50;;;;;;5002924;28;20080;-66
2021/04/12 12:07:52;;;;;;;3.90;1.50;;;9.90;77.80;;;;;;4992920;28;20030;-67
2021/04/12 12:10:52;;;;;;;4.10;1.83;;;10.00;79.30;;;;;;4992879;28;20125;-67
2021/04/12 12:13:53;;;;;;;5.90;1.90;;;10.10;79.60;;;;;;5008749;28;20041;-67
2021/04/12 12:16:34;;;;;;;4.10;1.63;;;10.80;79.10;;;;;;4994029;28;20030;-67
2021/04/12 12:19:34;;;;;;;3.38;1.45;;;11.70;74.50;;;;;;5007142;28;20515;-67
2021/04/12 12:22:49;;;;;;;3.72;1.38;;;11.70;75.40;;;;;;5045444;28;20380;-66
2021/04/12 12:25:21;;;;;;;4.53;1.98;;;12.10;72.40;;;;;;5004713;28;20053;-67
2021/04/12 12:28:10;;;;;;;;;;;12.50;69.40;;;;;;5013962;28;20034;-66
2021/04/12 12:30:49;;;;;;;3.72;1.83;;;12.00;68.20;;;;;;5011926;28;20358;-66
2021/04/12 12:33:38;;;;;;;3.28;2.08;;;11.90;67.40;;;;;;5028340;28;20527;-66
2021/04/12 12:36:53;;;;;;;4.88;2.17;;;11.30;70.20;;;;;;5012178;28;20064;-66
2021/04/12 12:39:50;;;;;;;3.65;1.83;;;11.30;68.80;;;;;;4990242;28;20145;-66
2021/04/12 12:42:42;;;;;;;5.38;1.88;;;10.70;70.00;;;;;;5012444;28;20046;-67
2021/04/12 12:45:30;;;;;;;4.80;2.25;;;12.20;72.30;;;;;;5028064;28;20034;-67
2021/04/12 12:48:03;;;;;;;7.75;2.08;;;11.60;66.60;;;;;;5026240;28;20037;-67
2021/04/12 12:50:42;;;;;;;3.90;1.40;;;11.50;69.80;;;;;;5024148;28;20040;-67
2021/04/12 12:53:22;;;;;;;2.55;1.38;;;11.70;67.70;;;;;;5051053;28;20090;-67
2021/04/12 12:55:57;;;;;;;3.88;1.55;;;11.20;68.20;;;;;;5052567;28;20091;-67
2021/04/12 12:58:28;;;;;;;2.55;1.33;;;11.30;69.00;;;;;;5067267;28;20059;-68
2021/04/12 13:01:01;;;;;;;7.25;1.67;;;12.00;68.70;;;;;;5067985;28;20036;-67
2021/04/12 13:03:44;;;;;;;6.15;1.83;;;11.70;67.40;;;;;;5067694;28;20040;-67
2021/04/12 13:06:27;;;;;;;5.32;1.52;;;12.00;66.30;;;;;;5050963;28;20103;-67
2021/04/12 13:09:05;;;;;;;5.57;1.52;;;11.90;65.40;;;;;;5051751;28;20385;-66
2021/04/12 13:11:47;;;;;;;4.00;1.70;;;11.90;68.30;;;;;;5066884;28;20044;-66
2021/04/12 13:14:52;;;;;;;6.70;1.65;;;12.40;68.10;;;;;;5052129;28;20342;-66
2021/04/12 13:17:39;;;;;;;5.40;1.90;;;12.90;62.80;;;;;;4993786;28;20030;-64
2021/04/12 13:20:13;;;;;;;4.13;1.58;;;14.30;58.90;;;;;;5043474;28;20552;-66
2021/04/12 13:22:48;;;;;;;2.30;1.30;;;13.30;59.80;;;;;;5030706;28;20437;-67
2021/04/12 13:25:52;;;;;;;1.77;1.00;;;13.30;58.20;;;;;;5031176;28;20084;-67
2021/04/12 13:28:26;;;;;;;2.72;1.25;;;13.60;57.30;;;;;;4990242;28;20066;-67
2021/04/12 13:31:06;;;;;;;4.03;1.48;;;14.80;56.70;;;;;;5026109;28;20419;-67
2021/04/12 13:33:41;;;;;;;7.07;1.52;;;16.20;53.10;;;;;;5031106;28;20037;-67
2021/04/12 13:36:23;;;;;;;3.65;1.40;;;15.50;53.20;;;;;;5030951;28;20037;-68
2021/04/12 13:38:51;;;;;;;;;;;14.90;53.70;;;;;;5031488;28;20486;-67
2021/04/12 13:41:26;;;;;;;7.05;2.00;;;15.30;53.90;;;;;;5063945;28;19924;-68
2021/04/12 13:44:08;;;;;;;5.03;1.88;;;14.70;54.70;;;;;;5031027;28;20037;-67
2021/04/12 13:47:13;;;;;;;8.15;1.73;;;12.80;57.20;;;;;;5032036;28;20041;-68
2021/04/12 13:49:48;;;;;;;6.13;2.20;;;12.20;58.70;;;;;;5034026;28;20809;-67
2021/04/12 13:52:25;;;;;;;3.15;1.45;;;11.90;59.80;;;;;;5043134;28;20044;-68
2021/04/12 13:55:06;;;;;;;2.83;1.35;;;12.50;57.00;;;;;;5031998;28;20030;-67
2021/04/12 13:57:52;;;;;;;4.10;1.38;;;12.40;55.80;;;;;;5061981;28;20033;-67
2021/04/12 14:00:21;;;;;;;11.95;4.03;;;11.90;57.50;;;;;;5063047;28;20034;-67
2021/04/12 14:02:58;;;;;;;4.22;1.60;;;11.40;60.40;;;;;;5032076;28;20492;-67
2021/04/12 14:05:36;;;;;;;3.60;1.67;;;11.10;60.60;;;;;;5031862;28;20029;-67
2021/04/12 14:08:22;;;;;;;6.75;1.73;;;10.90;59.90;;;;;;5062460;28;20038;-67
2021/04/12 14:11:21;;;;;;;4.85;1.77;;;10.00;61.30;;;;;;5046884;28;20034;-68
2021/04/12 14:13:53;;;;;;;2.42;1.30;;;10.20;62.80;;;;;;5035102;28;20041;-67
2021/04/12 14:16:33;;;;;;;3.42;1.75;;;10.50;61.70;;;;;;5031918;28;20032;-66
2021/04/12 14:19:23;;;;;;;2.60;1.40;;;11.00;65.00;;;;;;5030484;28;20049;-66
2021/04/12 14:21:52;;;;;;;6.53;1.60;;;11.50;61.00;;;;;;5033447;28;20030;-68
2021/04/12 14:24:34;;;;;;;3.92;1.80;;;11.40;60.60;;;;;;5034296;28;20037;-67
2021/04/12 14:27:32;;;;;;;2.15;1.40;;;11.10;60.70;;;;;;5035730;28;20390;-67
2021/04/12 14:30:07;;;;;;;2.53;1.70;;;10.80;61.50;;;;;;5035391;28;20034;-66
2021/04/12 14:32:41;;;;;;;6.40;1.52;;;10.50;64.20;;;;;;5035443;28;20437;-66
2021/04/12 14:35:19;;;;;;;4.60;2.10;;;10.50;64.80;;;;;;5035294;28;20041;-67
2021/04/12 14:37:45;;;;;;;2.78;1.70;;;10.50;64.10;;;;;;5033914;28;20056;-68
2021/04/12 14:40:30;;;;;;;9.40;2.60;;;10.10;63.00;;;;;;5034021;28;20025;-68
2021/04/12 14:43:10;;;;;;;16.65;6.28;;;10.10;63.90;;;;;;5034785;28;20081;-67
2021/04/12 14:45:39;;;;;;;4.43;1.35;;;9.90;65.50;;;;;;5034740;28;20489;-66
2021/04/12 14:48:22;;;;;;;2.33;1.40;;;9.80;67.10;;;;;;5034822;28;20073;-67
2021/04/12 14:51:06;;;;;;;6.97;1.60;;;9.80;66.50;;;;;;5046247;28;20033;-67
2021/04/12 14:53:51;;;;;;;2.67;1.30;;;9.80;71.70;;;;;;5068701;28;20025;-67
2021/04/12 14:56:24;;;;;;;2.42;1.40;;;9.10;90.90;;;;;;5069542;28;20068;-66
2021/04/12 14:58:56;;;;;;;2.72;1.42;;;8.60;96.50;;;;;;5069797;28;20492;-67
2021/04/12 15:01:29;;;;;;;;;;;8.40;99.40;;;;;;5055390;28;20586;-67
2021/04/12 15:04:12;;;;;;;4.00;1.40;;;8.30;97.90;;;;;;5053597;28;19913;-68
2021/04/12 15:07:04;;;;;;;4.80;1.42;;;8.30;98.70;;;;;;5054523;28;20064;-67
2021/04/12 15:10:12;;;;;;;3.88;1.42;;;8.50;98.20;;;;;;5054808;28;20622;-67